CEB6639 RPVM-RPMP
Flight info
| Callsign | CEB6639 |
|---|---|
| Flight time | 0h 31m |
| Altitude | 21000 |
| Route | EMDEE4P EMDEE DCT OZ DCT |
| Aircraft | A20N/M-SDE2E3FGHIRWXY/LB1 |
Departure
| Time | 2026-05-08 05:13 |
|---|---|
| Airport | Mactan Cebu International Airport (RPVM) |
Arrival
| Time | 2026-05-08 05:44 |
|---|---|
| Airport | Pagadian Airport (RPMP) |
| Time | Latitude | Longitude | Altitude | Speed | Heading |
|---|---|---|---|---|---|
| 2026-05-08 04:53 | 10.31599 | 123.98021 | 46 ft | 0 kts | 315° |
| 2026-05-08 04:56 | 10.31593 | 123.98027 | 46 ft | 2 kts | 313° |
| 2026-05-08 04:56 | 10.31582 | 123.98038 | 46 ft | 2 kts | 316° |
| 2026-05-08 04:56 | 10.31571 | 123.98048 | 46 ft | 2 kts | 315° |
| 2026-05-08 04:56 | 10.31560 | 123.98060 | 46 ft | 2 kts | 315° |
| 2026-05-08 04:57 | 10.31550 | 123.98070 | 46 ft | 0 kts | 315° |
| 2026-05-08 04:57 | 10.31543 | 123.98081 | 46 ft | 2 kts | 264° |
| 2026-05-08 04:57 | 10.31549 | 123.98092 | 46 ft | 1 kts | 216° |
| 2026-05-08 04:57 | 10.31552 | 123.98096 | 46 ft | 0 kts | 224° |
| 2026-05-08 04:59 | 10.31552 | 123.98095 | 46 ft | 0 kts | 225° |
| 2026-05-08 04:59 | 10.31550 | 123.98093 | 46 ft | 0 kts | 225° |
| 2026-05-08 05:00 | 10.31547 | 123.98090 | 46 ft | 0 kts | 225° |
| 2026-05-08 05:00 | 10.31541 | 123.98084 | 46 ft | 1 kts | 226° |
| 2026-05-08 05:00 | 10.31531 | 123.98073 | 46 ft | 3 kts | 226° |
| 2026-05-08 05:00 | 10.31508 | 123.98049 | 46 ft | 5 kts | 226° |
| 2026-05-08 05:01 | 10.31474 | 123.98014 | 46 ft | 7 kts | 225° |
| 2026-05-08 05:01 | 10.31431 | 123.97971 | 46 ft | 8 kts | 225° |
| 2026-05-08 05:01 | 10.31381 | 123.97921 | 46 ft | 9 kts | 226° |
| 2026-05-08 05:01 | 10.31336 | 123.97891 | 46 ft | 6 kts | 177° |
| 2026-05-08 05:02 | 10.31302 | 123.97918 | 46 ft | 6 kts | 136° |
| 2026-05-08 05:02 | 10.31261 | 123.97959 | 46 ft | 8 kts | 134° |
| 2026-05-08 05:02 | 10.31208 | 123.97981 | 46 ft | 8 kts | 203° |
| 2026-05-08 05:02 | 10.31151 | 123.97931 | 46 ft | 10 kts | 225° |
| 2026-05-08 05:03 | 10.31091 | 123.97869 | 46 ft | 12 kts | 226° |
| 2026-05-08 05:03 | 10.31026 | 123.97804 | 46 ft | 13 kts | 225° |
| 2026-05-08 05:03 | 10.30951 | 123.97729 | 46 ft | 14 kts | 225° |
| 2026-05-08 05:03 | 10.30875 | 123.97654 | 46 ft | 13 kts | 225° |
| 2026-05-08 05:04 | 10.30804 | 123.97582 | 46 ft | 12 kts | 225° |
| 2026-05-08 05:04 | 10.30740 | 123.97517 | 46 ft | 11 kts | 224° |
| 2026-05-08 05:04 | 10.30684 | 123.97461 | 46 ft | 10 kts | 225° |
| 2026-05-08 05:04 | 10.30626 | 123.97402 | 46 ft | 11 kts | 224° |
| 2026-05-08 05:05 | 10.30567 | 123.97344 | 46 ft | 11 kts | 225° |
| 2026-05-08 05:05 | 10.30503 | 123.97278 | 46 ft | 12 kts | 226° |
| 2026-05-08 05:05 | 10.30436 | 123.97210 | 46 ft | 13 kts | 224° |
| 2026-05-08 05:05 | 10.30362 | 123.97160 | 46 ft | 12 kts | 178° |
| 2026-05-08 05:06 | 10.30293 | 123.97218 | 46 ft | 13 kts | 135° |
| 2026-05-08 05:06 | 10.30239 | 123.97271 | 46 ft | 2 kts | 134° |
| 2026-05-08 05:06 | 10.30234 | 123.97276 | 46 ft | 0 kts | 134° |
| 2026-05-08 05:10 | 10.30230 | 123.97281 | 46 ft | 1 kts | 134° |
| 2026-05-08 05:10 | 10.30172 | 123.97340 | 46 ft | 2 kts | 124° |
| 2026-05-08 05:10 | 10.30177 | 123.97361 | 46 ft | 3 kts | 50° |
| 2026-05-08 05:11 | 10.30185 | 123.97369 | 46 ft | 0 kts | 45° |
| 2026-05-08 05:12 | 10.30301 | 123.97486 | 46 ft | 60 kts | 45° |
| 2026-05-08 05:12 | 10.30837 | 123.98025 | 46 ft | 133 kts | 44° |
| 2026-05-08 05:12 | 10.31596 | 123.98785 | 320 ft | 158 kts | 42° |
| 2026-05-08 05:13 | 10.32388 | 123.99584 | 926 ft | 161 kts | 44° |
| 2026-05-08 05:13 | 10.33186 | 124.00391 | 1700 ft | 155 kts | 46° |
| 2026-05-08 05:13 | 10.33861 | 124.01211 | 2184 ft | 157 kts | 66° |
| 2026-05-08 05:13 | 10.33894 | 124.02357 | 2476 ft | 176 kts | 109° |
| 2026-05-08 05:14 | 10.33160 | 124.03439 | 2814 ft | 195 kts | 126° |
| 2026-05-08 05:14 | 10.32287 | 124.04563 | 3196 ft | 210 kts | 124° |
| 2026-05-08 05:14 | 10.31375 | 124.05821 | 3511 ft | 231 kts | 123° |
| 2026-05-08 05:14 | 10.30390 | 124.07220 | 3912 ft | 250 kts | 123° |
| 2026-05-08 05:15 | 10.29342 | 124.08724 | 4461 ft | 263 kts | 123° |
| 2026-05-08 05:15 | 10.28269 | 124.10265 | 5272 ft | 266 kts | 123° |
| 2026-05-08 05:15 | 10.27217 | 124.11779 | 6124 ft | 267 kts | 123° |
| 2026-05-08 05:15 | 10.26152 | 124.13316 | 6933 ft | 269 kts | 123° |
| 2026-05-08 05:16 | 10.25063 | 124.14887 | 7665 ft | 274 kts | 123° |
| 2026-05-08 05:16 | 10.23953 | 124.16489 | 8392 ft | 279 kts | 123° |
| 2026-05-08 05:16 | 10.22847 | 124.18085 | 9110 ft | 283 kts | 123° |
| 2026-05-08 05:16 | 10.21700 | 124.19741 | 9836 ft | 287 kts | 123° |
| 2026-05-08 05:17 | 10.20386 | 124.21278 | 10449 ft | 297 kts | 139° |
| 2026-05-08 05:17 | 10.18509 | 124.22299 | 10767 ft | 319 kts | 161° |
| 2026-05-08 05:17 | 10.16208 | 124.22513 | 11052 ft | 342 kts | 185° |
| 2026-05-08 05:17 | 10.13811 | 124.22056 | 11344 ft | 359 kts | 190° |
| 2026-05-08 05:18 | 10.11306 | 124.21513 | 11610 ft | 375 kts | 190° |
| 2026-05-08 05:18 | 10.08719 | 124.20961 | 11862 ft | 389 kts | 190° |
| 2026-05-08 05:18 | 10.05999 | 124.20393 | 12170 ft | 401 kts | 189° |
| 2026-05-08 05:18 | 10.03233 | 124.19827 | 12688 ft | 405 kts | 189° |
| 2026-05-08 05:19 | 10.00457 | 124.19264 | 13250 ft | 407 kts | 189° |
| 2026-05-08 05:19 | 9.97685 | 124.18704 | 13762 ft | 410 kts | 189° |
| 2026-05-08 05:19 | 9.94850 | 124.18134 | 14251 ft | 414 kts | 189° |
| 2026-05-08 05:19 | 9.92007 | 124.17564 | 14741 ft | 417 kts | 189° |
| 2026-05-08 05:20 | 9.89122 | 124.16985 | 15213 ft | 420 kts | 189° |
| 2026-05-08 05:20 | 9.86257 | 124.16412 | 15675 ft | 423 kts | 189° |
| 2026-05-08 05:20 | 9.83305 | 124.15745 | 16119 ft | 427 kts | 195° |
| 2026-05-08 05:20 | 9.80437 | 124.14567 | 16570 ft | 432 kts | 206° |
| 2026-05-08 05:21 | 9.77679 | 124.12751 | 17031 ft | 436 kts | 217° |
| 2026-05-08 05:21 | 9.75116 | 124.10630 | 17480 ft | 439 kts | 219° |
| 2026-05-08 05:21 | 9.72637 | 124.08511 | 17901 ft | 442 kts | 219° |
| 2026-05-08 05:21 | 9.70034 | 124.06287 | 18338 ft | 445 kts | 219° |
| 2026-05-08 05:22 | 9.67624 | 124.04240 | 18721 ft | 448 kts | 219° |
| 2026-05-08 05:22 | 9.65189 | 124.02183 | 19093 ft | 450 kts | 219° |
| 2026-05-08 05:22 | 9.62707 | 124.00094 | 19470 ft | 453 kts | 218° |
| 2026-05-08 05:22 | 9.60238 | 123.98019 | 19861 ft | 455 kts | 218° |
| 2026-05-08 05:23 | 9.57760 | 123.95938 | 20232 ft | 457 kts | 218° |
| 2026-05-08 05:23 | 9.55288 | 123.93865 | 20608 ft | 459 kts | 218° |
| 2026-05-08 05:23 | 9.52745 | 123.91733 | 20814 ft | 462 kts | 218° |
| 2026-05-08 05:23 | 9.50223 | 123.89619 | 20813 ft | 461 kts | 218° |
| 2026-05-08 05:24 | 9.47739 | 123.87536 | 20817 ft | 461 kts | 218° |
| 2026-05-08 05:24 | 9.45232 | 123.85433 | 20821 ft | 461 kts | 219° |
| 2026-05-08 05:24 | 9.42728 | 123.83335 | 20814 ft | 461 kts | 218° |
| 2026-05-08 05:24 | 9.40277 | 123.81287 | 20812 ft | 460 kts | 217° |
| 2026-05-08 05:25 | 9.37554 | 123.79536 | 20804 ft | 457 kts | 203° |
| 2026-05-08 05:25 | 9.34499 | 123.78542 | 20804 ft | 454 kts | 188° |
| 2026-05-08 05:25 | 9.31343 | 123.78329 | 20810 ft | 451 kts | 176° |
| 2026-05-08 05:25 | 9.28168 | 123.78459 | 20815 ft | 450 kts | 175° |
| 2026-05-08 05:26 | 9.25004 | 123.78622 | 20815 ft | 450 kts | 175° |
| 2026-05-08 05:26 | 9.21859 | 123.78784 | 20811 ft | 450 kts | 175° |
| 2026-05-08 05:26 | 9.18692 | 123.78938 | 20810 ft | 451 kts | 175° |
| 2026-05-08 05:26 | 9.15567 | 123.79083 | 20810 ft | 451 kts | 175° |
| 2026-05-08 05:27 | 9.12406 | 123.79225 | 20812 ft | 451 kts | 175° |
| 2026-05-08 05:27 | 9.09231 | 123.79364 | 20809 ft | 451 kts | 175° |
| 2026-05-08 05:27 | 9.06108 | 123.79498 | 20806 ft | 451 kts | 175° |
| 2026-05-08 05:27 | 9.02948 | 123.79633 | 20804 ft | 451 kts | 175° |
| 2026-05-08 05:28 | 8.99777 | 123.79769 | 20804 ft | 451 kts | 175° |
| 2026-05-08 05:28 | 8.96617 | 123.79905 | 20804 ft | 451 kts | 175° |
| 2026-05-08 05:28 | 8.93481 | 123.80039 | 20806 ft | 451 kts | 175° |
| 2026-05-08 05:28 | 8.90373 | 123.80170 | 20804 ft | 450 kts | 175° |
| 2026-05-08 05:29 | 8.87166 | 123.80306 | 20798 ft | 450 kts | 175° |
| 2026-05-08 05:29 | 8.83846 | 123.80450 | 20787 ft | 448 kts | 175° |
| 2026-05-08 05:29 | 8.80558 | 123.80591 | 20335 ft | 444 kts | 175° |
| 2026-05-08 05:29 | 8.77208 | 123.80734 | 19257 ft | 450 kts | 175° |
| 2026-05-08 05:30 | 8.73768 | 123.80885 | 18226 ft | 451 kts | 175° |
| 2026-05-08 05:30 | 8.70433 | 123.81027 | 17465 ft | 446 kts | 176° |
| 2026-05-08 05:30 | 8.67026 | 123.81170 | 16768 ft | 440 kts | 175° |
| 2026-05-08 05:30 | 8.63996 | 123.81297 | 16445 ft | 426 kts | 175° |
| 2026-05-08 05:31 | 8.61063 | 123.81419 | 16016 ft | 417 kts | 175° |
| 2026-05-08 05:31 | 8.58134 | 123.81544 | 15384 ft | 413 kts | 175° |
| 2026-05-08 05:31 | 8.55267 | 123.81667 | 14738 ft | 410 kts | 175° |
| 2026-05-08 05:31 | 8.52443 | 123.81788 | 14150 ft | 406 kts | 175° |
| 2026-05-08 05:32 | 8.49631 | 123.81907 | 13611 ft | 400 kts | 175° |
| 2026-05-08 05:32 | 8.46802 | 123.82028 | 12980 ft | 397 kts | 175° |
| 2026-05-08 05:32 | 8.44048 | 123.82147 | 12582 ft | 387 kts | 175° |
| 2026-05-08 05:32 | 8.41414 | 123.82258 | 12362 ft | 374 kts | 175° |
| 2026-05-08 05:33 | 8.38834 | 123.82368 | 12138 ft | 361 kts | 175° |
| 2026-05-08 05:33 | 8.36347 | 123.82472 | 11940 ft | 349 kts | 175° |
| 2026-05-08 05:33 | 8.33966 | 123.82575 | 11748 ft | 337 kts | 175° |
| 2026-05-08 05:33 | 8.31635 | 123.82674 | 11568 ft | 326 kts | 175° |
| 2026-05-08 05:34 | 8.29398 | 123.82771 | 11386 ft | 316 kts | 175° |
| 2026-05-08 05:34 | 8.27248 | 123.82864 | 11215 ft | 306 kts | 174° |
| 2026-05-08 05:34 | 8.25144 | 123.82954 | 10946 ft | 301 kts | 174° |
| 2026-05-08 05:34 | 8.23024 | 123.83046 | 10568 ft | 299 kts | 174° |
| 2026-05-08 05:35 | 8.20973 | 123.83134 | 10197 ft | 297 kts | 174° |
| 2026-05-08 05:35 | 8.18883 | 123.83067 | 9790 ft | 300 kts | 191° |
| 2026-05-08 05:35 | 8.17040 | 123.82109 | 9273 ft | 303 kts | 221° |
| 2026-05-08 05:35 | 8.15834 | 123.80387 | 8676 ft | 303 kts | 244° |
| 2026-05-08 05:36 | 8.14986 | 123.78436 | 8105 ft | 301 kts | 246° |
| 2026-05-08 05:36 | 8.14169 | 123.76523 | 7502 ft | 297 kts | 246° |
| 2026-05-08 05:36 | 8.13345 | 123.74638 | 6841 ft | 294 kts | 245° |
| 2026-05-08 05:36 | 8.12506 | 123.72762 | 6220 ft | 293 kts | 245° |
| 2026-05-08 05:37 | 8.11657 | 123.70889 | 5837 ft | 289 kts | 245° |
| 2026-05-08 05:37 | 8.10812 | 123.69044 | 5484 ft | 286 kts | 245° |
| 2026-05-08 05:37 | 8.09976 | 123.67220 | 5092 ft | 284 kts | 245° |
| 2026-05-08 05:37 | 8.09147 | 123.65414 | 4717 ft | 282 kts | 245° |
| 2026-05-08 05:38 | 8.08323 | 123.63622 | 4367 ft | 279 kts | 245° |
| 2026-05-08 05:38 | 8.07506 | 123.61849 | 4002 ft | 278 kts | 245° |
| 2026-05-08 05:38 | 8.06695 | 123.60088 | 3650 ft | 277 kts | 246° |
| 2026-05-08 05:38 | 8.05883 | 123.58324 | 3277 ft | 275 kts | 246° |
| 2026-05-08 05:39 | 8.05070 | 123.56559 | 3069 ft | 265 kts | 246° |
| 2026-05-08 05:39 | 8.04312 | 123.54907 | 2871 ft | 255 kts | 245° |
| 2026-05-08 05:39 | 8.03580 | 123.53316 | 2709 ft | 246 kts | 245° |
| 2026-05-08 05:39 | 8.02786 | 123.51820 | 2544 ft | 238 kts | 230° |
| 2026-05-08 05:40 | 8.01435 | 123.50935 | 2395 ft | 228 kts | 197° |
| 2026-05-08 05:40 | 7.99905 | 123.50558 | 2290 ft | 217 kts | 191° |
| 2026-05-08 05:40 | 7.98445 | 123.50264 | 2172 ft | 207 kts | 191° |
| 2026-05-08 05:40 | 7.97099 | 123.49964 | 2156 ft | 190 kts | 192° |
| 2026-05-08 05:41 | 7.95863 | 123.49662 | 2000 ft | 172 kts | 193° |
| 2026-05-08 05:41 | 7.94747 | 123.49374 | 1869 ft | 161 kts | 194° |
| 2026-05-08 05:41 | 7.93691 | 123.49095 | 1780 ft | 150 kts | 194° |
| 2026-05-08 05:41 | 7.92690 | 123.48825 | 1685 ft | 146 kts | 194° |
| 2026-05-08 05:42 | 7.91706 | 123.48560 | 1593 ft | 145 kts | 194° |
| 2026-05-08 05:42 | 7.90731 | 123.48286 | 1460 ft | 146 kts | 195° |
| 2026-05-08 05:42 | 7.89719 | 123.47986 | 1272 ft | 145 kts | 197° |
| 2026-05-08 05:42 | 7.88675 | 123.47678 | 1071 ft | 143 kts | 194° |
| 2026-05-08 05:43 | 7.87605 | 123.47389 | 843 ft | 143 kts | 196° |
| 2026-05-08 05:43 | 7.86615 | 123.47110 | 665 ft | 143 kts | 193° |
| 2026-05-08 05:43 | 7.85634 | 123.46840 | 485 ft | 143 kts | 196° |
| 2026-05-08 05:43 | 7.84665 | 123.46568 | 336 ft | 143 kts | 195° |
| 2026-05-08 05:44 | 7.83717 | 123.46293 | 129 ft | 142 kts | 195° |
| 2026-05-08 05:44 | 7.82798 | 123.46030 | 47 ft | 115 kts | 196° |
| 2026-05-08 05:44 | 7.82313 | 123.45892 | 42 ft | 39 kts | 195° |
| 2026-05-08 05:44 | 7.82129 | 123.45843 | 42 ft | 6 kts | 192° |
| 2026-05-08 05:45 | 7.82076 | 123.45837 | 42 ft | 7 kts | 186° |
| 2026-05-08 05:45 | 7.82034 | 123.45821 | 41 ft | 6 kts | 220° |
| 2026-05-08 05:45 | 7.82009 | 123.45795 | 41 ft | 0 kts | 216° |
| 2026-05-08 05:45 | 7.82006 | 123.45795 | 41 ft | 0 kts | 172° |
| 2026-05-08 05:46 | 7.82005 | 123.45798 | 41 ft | 0 kts | 111° |
| 2026-05-08 05:46 | 7.82007 | 123.45802 | 42 ft | 1 kts | 32° |
| 2026-05-08 05:46 | 7.82029 | 123.45810 | 42 ft | 5 kts | 20° |
| 2026-05-08 05:46 | 7.82075 | 123.45824 | 42 ft | 9 kts | 15° |
| 2026-05-08 05:47 | 7.82151 | 123.45845 | 42 ft | 13 kts | 15° |
| 2026-05-08 05:47 | 7.82253 | 123.45874 | 42 ft | 17 kts | 16° |
| 2026-05-08 05:47 | 7.82377 | 123.45910 | 43 ft | 19 kts | 15° |
| 2026-05-08 05:47 | 7.82520 | 123.45950 | 44 ft | 22 kts | 16° |
| 2026-05-08 05:48 | 7.82674 | 123.45995 | 45 ft | 23 kts | 16° |
| 2026-05-08 05:48 | 7.82839 | 123.46041 | 47 ft | 24 kts | 15° |
| 2026-05-08 05:48 | 7.82963 | 123.46088 | 48 ft | 9 kts | 53° |
| 2026-05-08 05:48 | 7.82995 | 123.46146 | 49 ft | 9 kts | 63° |
| 2026-05-08 05:49 | 7.83030 | 123.46197 | 49 ft | 7 kts | 23° |
| 2026-05-08 05:49 | 7.83081 | 123.46213 | 49 ft | 7 kts | 15° |
| 2026-05-08 05:49 | 7.83113 | 123.46224 | 49 ft | 2 kts | 56° |
| 2026-05-08 05:49 | 7.83118 | 123.46247 | 49 ft | 2 kts | 95° |
| 2026-05-08 05:50 | 7.83115 | 123.46258 | 49 ft | 0 kts | 108° |